sensor_id;sensor_type;location;lat;lon;timestamp;P1;durP1;ratioP1;P2;durP2;ratioP2
79583;SDS011;69053;57.338;18.700;2024-02-15T00:02:20;19.85;;;7.38;;
79583;SDS011;69053;57.338;18.700;2024-02-15T00:05:20;17.38;;;8.25;;
79583;SDS011;69053;57.338;18.700;2024-02-15T00:08:21;20.65;;;7.93;;
79583;SDS011;69053;57.338;18.700;2024-02-15T00:11:21;19.73;;;9.00;;
79583;SDS011;69053;57.338;18.700;2024-02-15T00:14:22;28.55;;;10.80;;
79583;SDS011;69053;57.338;18.700;2024-02-15T00:17:22;57.75;;;11.35;;
79583;SDS011;69053;57.338;18.700;2024-02-15T00:20:23;30.13;;;10.05;;
79583;SDS011;69053;57.338;18.700;2024-02-15T00:23:23;40.67;;;9.48;;
79583;SDS011;69053;57.338;18.700;2024-02-15T00:26:24;42.13;;;11.10;;
79583;SDS011;69053;57.338;18.700;2024-02-15T00:29:24;29.02;;;9.75;;
79583;SDS011;69053;57.338;18.700;2024-02-15T00:32:26;21.00;;;9.00;;
79583;SDS011;69053;57.338;18.700;2024-02-15T00:35:26;31.70;;;11.27;;
79583;SDS011;69053;57.338;18.700;2024-02-15T00:38:27;28.80;;;10.20;;
79583;SDS011;69053;57.338;18.700;2024-02-15T00:41:28;21.27;;;8.45;;
79583;SDS011;69053;57.338;18.700;2024-02-15T00:44:28;23.45;;;8.75;;
79583;SDS011;69053;57.338;18.700;2024-02-15T00:47:29;18.75;;;6.93;;
79583;SDS011;69053;57.338;18.700;2024-02-15T00:50:29;19.45;;;8.23;;
79583;SDS011;69053;57.338;18.700;2024-02-15T00:53:29;20.20;;;7.70;;
79583;SDS011;69053;57.338;18.700;2024-02-15T00:56:30;19.50;;;7.13;;
79583;SDS011;69053;57.338;18.700;2024-02-15T00:59:32;21.38;;;7.47;;
79583;SDS011;69053;57.338;18.700;2024-02-15T01:02:35;17.55;;;7.50;;
79583;SDS011;69053;57.338;18.700;2024-02-15T01:05:36;22.75;;;7.97;;
79583;SDS011;69053;57.338;18.700;2024-02-15T01:08:36;18.80;;;8.32;;
79583;SDS011;69053;57.338;18.700;2024-02-15T01:11:37;19.73;;;7.32;;
79583;SDS011;69053;57.338;18.700;2024-02-15T01:14:37;16.88;;;7.85;;
79583;SDS011;69053;57.338;18.700;2024-02-15T01:17:38;17.55;;;7.60;;
79583;SDS011;69053;57.338;18.700;2024-02-15T01:20:38;24.70;;;8.55;;
79583;SDS011;69053;57.338;18.700;2024-02-15T01:23:39;21.58;;;7.85;;
79583;SDS011;69053;57.338;18.700;2024-02-15T01:26:39;18.00;;;8.13;;
79583;SDS011;69053;57.338;18.700;2024-02-15T01:29:40;19.85;;;8.00;;
79583;SDS011;69053;57.338;18.700;2024-02-15T01:32:42;20.33;;;8.05;;
79583;SDS011;69053;57.338;18.700;2024-02-15T01:35:43;20.23;;;7.72;;
79583;SDS011;69053;57.338;18.700;2024-02-15T01:38:43;19.80;;;8.30;;
79583;SDS011;69053;57.338;18.700;2024-02-15T01:41:48;34.17;;;8.48;;
79583;SDS011;69053;57.338;18.700;2024-02-15T01:44:55;19.30;;;7.63;;
79583;SDS011;69053;57.338;18.700;2024-02-15T01:47:56;18.92;;;7.63;;
79583;SDS011;69053;57.338;18.700;2024-02-15T01:50:57;19.38;;;7.57;;
79583;SDS011;69053;57.338;18.700;2024-02-15T01:53:58;21.27;;;6.50;;
79583;SDS011;69053;57.338;18.700;2024-02-15T01:57:01;15.88;;;6.80;;
79583;SDS011;69053;57.338;18.700;2024-02-15T02:00:04;34.90;;;10.80;;
79583;SDS011;69053;57.338;18.700;2024-02-15T02:03:06;26.27;;;9.27;;
79583;SDS011;69053;57.338;18.700;2024-02-15T02:06:09;30.70;;;10.70;;
79583;SDS011;69053;57.338;18.700;2024-02-15T02:09:12;33.80;;;11.77;;
79583;SDS011;69053;57.338;18.700;2024-02-15T02:12:13;26.48;;;11.43;;
79583;SDS011;69053;57.338;18.700;2024-02-15T02:15:13;29.92;;;11.25;;
79583;SDS011;69053;57.338;18.700;2024-02-15T02:18:14;37.75;;;11.63;;
79583;SDS011;69053;57.338;18.700;2024-02-15T02:21:15;29.52;;;10.25;;
79583;SDS011;69053;57.338;18.700;2024-02-15T02:24:19;28.65;;;10.88;;
79583;SDS011;69053;57.338;18.700;2024-02-15T02:27:22;28.13;;;11.13;;
79583;SDS011;69053;57.338;18.700;2024-02-15T02:30:23;24.77;;;10.38;;
79583;SDS011;69053;57.338;18.700;2024-02-15T02:33:26;27.33;;;10.10;;
79583;SDS011;69053;57.338;18.700;2024-02-15T02:36:28;28.40;;;12.20;;
79583;SDS011;69053;57.338;18.700;2024-02-15T02:39:29;26.80;;;10.32;;
79583;SDS011;69053;57.338;18.700;2024-02-15T02:42:31;31.42;;;11.60;;
79583;SDS011;69053;57.338;18.700;2024-02-15T02:45:32;23.58;;;10.13;;
79583;SDS011;69053;57.338;18.700;2024-02-15T02:48:33;23.10;;;9.85;;
79583;SDS011;69053;57.338;18.700;2024-02-15T02:51:33;26.10;;;11.23;;
79583;SDS011;69053;57.338;18.700;2024-02-15T02:54:33;25.30;;;10.10;;
79583;SDS011;69053;57.338;18.700;2024-02-15T02:57:35;30.13;;;11.00;;
79583;SDS011;69053;57.338;18.700;2024-02-15T03:00:38;27.55;;;12.30;;
79583;SDS011;69053;57.338;18.700;2024-02-15T03:03:39;25.40;;;9.77;;
79583;SDS011;69053;57.338;18.700;2024-02-15T03:06:39;27.00;;;11.32;;
79583;SDS011;69053;57.338;18.700;2024-02-15T03:09:42;28.30;;;12.10;;
79583;SDS011;69053;57.338;18.700;2024-02-15T03:12:42;32.15;;;11.27;;
79583;SDS011;69053;57.338;18.700;2024-02-15T03:15:46;25.77;;;10.90;;
79583;SDS011;69053;57.338;18.700;2024-02-15T03:18:47;29.08;;;12.05;;
79583;SDS011;69053;57.338;18.700;2024-02-15T03:21:48;26.75;;;11.00;;
79583;SDS011;69053;57.338;18.700;2024-02-15T03:24:49;32.42;;;13.73;;
79583;SDS011;69053;57.338;18.700;2024-02-15T03:27:50;30.23;;;11.38;;
79583;SDS011;69053;57.338;18.700;2024-02-15T03:30:54;23.23;;;11.32;;
79583;SDS011;69053;57.338;18.700;2024-02-15T03:33:55;28.45;;;12.10;;
79583;SDS011;69053;57.338;18.700;2024-02-15T03:36:56;28.38;;;13.25;;
79583;SDS011;69053;57.338;18.700;2024-02-15T03:39:57;27.88;;;11.85;;
79583;SDS011;69053;57.338;18.700;2024-02-15T03:42:58;26.52;;;11.38;;
79583;SDS011;69053;57.338;18.700;2024-02-15T03:45:58;29.90;;;11.73;;
79583;SDS011;69053;57.338;18.700;2024-02-15T03:48:58;30.73;;;12.35;;
79583;SDS011;69053;57.338;18.700;2024-02-15T03:51:59;29.08;;;10.57;;
79583;SDS011;69053;57.338;18.700;2024-02-15T03:54:59;29.13;;;11.48;;
79583;SDS011;69053;57.338;18.700;2024-02-15T03:58:02;28.23;;;10.73;;
79583;SDS011;69053;57.338;18.700;2024-02-15T04:01:02;24.55;;;10.75;;
79583;SDS011;69053;57.338;18.700;2024-02-15T04:04:06;25.55;;;10.27;;
79583;SDS011;69053;57.338;18.700;2024-02-15T04:07:06;24.45;;;9.40;;
79583;SDS011;69053;57.338;18.700;2024-02-15T04:10:07;23.05;;;9.55;;
79583;SDS011;69053;57.338;18.700;2024-02-15T04:13:08;29.05;;;9.77;;
79583;SDS011;69053;57.338;18.700;2024-02-15T04:16:08;28.63;;;10.23;;
79583;SDS011;69053;57.338;18.700;2024-02-15T04:19:10;20.40;;;9.68;;
79583;SDS011;69053;57.338;18.700;2024-02-15T04:22:10;22.75;;;9.70;;
79583;SDS011;69053;57.338;18.700;2024-02-15T04:25:11;23.83;;;10.10;;
79583;SDS011;69053;57.338;18.700;2024-02-15T04:28:16;21.67;;;10.15;;
79583;SDS011;69053;57.338;18.700;2024-02-15T04:31:16;28.70;;;11.20;;
79583;SDS011;69053;57.338;18.700;2024-02-15T04:34:17;30.83;;;10.95;;
79583;SDS011;69053;57.338;18.700;2024-02-15T04:37:18;26.90;;;11.30;;
79583;SDS011;69053;57.338;18.700;2024-02-15T04:40:20;26.55;;;10.00;;
79583;SDS011;69053;57.338;18.700;2024-02-15T04:43:21;32.50;;;11.23;;
79583;SDS011;69053;57.338;18.700;2024-02-15T04:46:22;20.98;;;10.57;;
79583;SDS011;69053;57.338;18.700;2024-02-15T04:49:24;28.83;;;11.50;;
79583;SDS011;69053;57.338;18.700;2024-02-15T04:52:26;27.30;;;10.52;;
79583;SDS011;69053;57.338;18.700;2024-02-15T04:55:26;31.45;;;11.45;;
79583;SDS011;69053;57.338;18.700;2024-02-15T04:58:26;26.55;;;10.52;;
79583;SDS011;69053;57.338;18.700;2024-02-15T05:01:28;24.65;;;10.10;;
79583;SDS011;69053;57.338;18.700;2024-02-15T05:04:33;22.88;;;10.55;;
79583;SDS011;69053;57.338;18.700;2024-02-15T05:07:36;24.67;;;9.18;;
79583;SDS011;69053;57.338;18.700;2024-02-15T05:10:39;23.58;;;10.52;;
79583;SDS011;69053;57.338;18.700;2024-02-15T05:13:39;23.77;;;10.55;;
79583;SDS011;69053;57.338;18.700;2024-02-15T05:16:40;27.08;;;10.30;;
79583;SDS011;69053;57.338;18.700;2024-02-15T05:19:42;36.38;;;10.43;;
79583;SDS011;69053;57.338;18.700;2024-02-15T05:22:42;29.48;;;11.32;;
79583;SDS011;69053;57.338;18.700;2024-02-15T05:25:45;35.38;;;11.48;;
79583;SDS011;69053;57.338;18.700;2024-02-15T05:28:46;28.65;;;11.32;;
79583;SDS011;69053;57.338;18.700;2024-02-15T05:31:46;38.10;;;12.35;;
79583;SDS011;69053;57.338;18.700;2024-02-15T05:34:50;25.38;;;9.95;;
79583;SDS011;69053;57.338;18.700;2024-02-15T05:37:50;28.42;;;11.30;;
79583;SDS011;69053;57.338;18.700;2024-02-15T05:40:52;32.72;;;10.93;;
79583;SDS011;69053;57.338;18.700;2024-02-15T05:43:53;26.35;;;10.43;;
79583;SDS011;69053;57.338;18.700;2024-02-15T05:46:54;30.98;;;12.07;;
79583;SDS011;69053;57.338;18.700;2024-02-15T05:49:54;29.95;;;12.63;;
79583;SDS011;69053;57.338;18.700;2024-02-15T05:52:55;28.27;;;11.52;;
79583;SDS011;69053;57.338;18.700;2024-02-15T05:55:56;31.95;;;12.23;;
79583;SDS011;69053;57.338;18.700;2024-02-15T05:59:00;34.80;;;12.63;;
79583;SDS011;69053;57.338;18.700;2024-02-15T06:02:02;30.55;;;11.50;;
79583;SDS011;69053;57.338;18.700;2024-02-15T06:05:03;27.10;;;11.25;;
79583;SDS011;69053;57.338;18.700;2024-02-15T06:08:05;30.02;;;10.85;;
79583;SDS011;69053;57.338;18.700;2024-02-15T06:11:06;24.77;;;10.40;;
79583;SDS011;69053;57.338;18.700;2024-02-15T06:14:07;32.80;;;12.13;;
79583;SDS011;69053;57.338;18.700;2024-02-15T06:17:07;27.85;;;11.30;;
79583;SDS011;69053;57.338;18.700;2024-02-15T06:20:09;29.85;;;11.10;;
79583;SDS011;69053;57.338;18.700;2024-02-15T06:23:11;24.17;;;11.00;;
79583;SDS011;69053;57.338;18.700;2024-02-15T06:26:14;29.45;;;11.23;;
79583;SDS011;69053;57.338;18.700;2024-02-15T06:29:14;35.72;;;11.13;;
79583;SDS011;69053;57.338;18.700;2024-02-15T06:32:33;22.75;;;10.23;;
79583;SDS011;69053;57.338;18.700;2024-02-15T06:35:52;28.33;;;12.20;;
79583;SDS011;69053;57.338;18.700;2024-02-15T06:39:11;30.25;;;10.80;;
79583;SDS011;69053;57.338;18.700;2024-02-15T06:42:30;23.63;;;10.90;;
79583;SDS011;69053;57.338;18.700;2024-02-15T06:45:33;31.50;;;10.80;;
79583;SDS011;69053;57.338;18.700;2024-02-15T06:48:36;28.50;;;11.07;;
79583;SDS011;69053;57.338;18.700;2024-02-15T06:51:37;28.35;;;12.35;;
79583;SDS011;69053;57.338;18.700;2024-02-15T06:54:40;33.97;;;11.88;;
79583;SDS011;69053;57.338;18.700;2024-02-15T06:57:41;29.58;;;11.98;;
79583;SDS011;69053;57.338;18.700;2024-02-15T07:00:42;24.23;;;11.75;;
79583;SDS011;69053;57.338;18.700;2024-02-15T07:03:44;37.28;;;12.13;;
79583;SDS011;69053;57.338;18.700;2024-02-15T07:06:45;30.23;;;11.30;;
79583;SDS011;69053;57.338;18.700;2024-02-15T07:09:47;24.77;;;10.65;;
79583;SDS011;69053;57.338;18.700;2024-02-15T07:12:48;34.75;;;11.32;;
79583;SDS011;69053;57.338;18.700;2024-02-15T07:15:49;31.13;;;12.00;;
79583;SDS011;69053;57.338;18.700;2024-02-15T07:18:50;54.70;;;12.13;;
79583;SDS011;69053;57.338;18.700;2024-02-15T07:21:50;42.78;;;11.88;;
79583;SDS011;69053;57.338;18.700;2024-02-15T07:24:51;39.60;;;11.60;;
79583;SDS011;69053;57.338;18.700;2024-02-15T07:27:52;32.55;;;11.70;;
79583;SDS011;69053;57.338;18.700;2024-02-15T07:30:54;28.55;;;12.07;;
79583;SDS011;69053;57.338;18.700;2024-02-15T07:33:54;42.03;;;13.20;;
79583;SDS011;69053;57.338;18.700;2024-02-15T07:36:55;32.00;;;11.15;;
79583;SDS011;69053;57.338;18.700;2024-02-15T07:39:57;26.15;;;11.60;;
79583;SDS011;69053;57.338;18.700;2024-02-15T07:42:59;29.60;;;10.93;;
79583;SDS011;69053;57.338;18.700;2024-02-15T07:45:59;30.92;;;11.73;;
79583;SDS011;69053;57.338;18.700;2024-02-15T07:48:59;26.10;;;11.10;;
79583;SDS011;69053;57.338;18.700;2024-02-15T07:52:00;23.98;;;11.00;;
79583;SDS011;69053;57.338;18.700;2024-02-15T07:55:00;29.63;;;11.60;;
79583;SDS011;69053;57.338;18.700;2024-02-15T07:58:08;29.02;;;12.18;;
79583;SDS011;69053;57.338;18.700;2024-02-15T08:01:09;25.50;;;12.00;;
79583;SDS011;69053;57.338;18.700;2024-02-15T08:04:09;30.92;;;12.43;;
79583;SDS011;69053;57.338;18.700;2024-02-15T08:07:10;30.98;;;11.23;;
79583;SDS011;69053;57.338;18.700;2024-02-15T08:10:11;25.45;;;11.13;;
79583;SDS011;69053;57.338;18.700;2024-02-15T08:13:14;24.95;;;11.50;;
79583;SDS011;69053;57.338;18.700;2024-02-15T08:16:15;25.33;;;11.38;;
79583;SDS011;69053;57.338;18.700;2024-02-15T08:19:16;27.05;;;12.10;;
79583;SDS011;69053;57.338;18.700;2024-02-15T08:22:17;26.27;;;11.18;;
79583;SDS011;69053;57.338;18.700;2024-02-15T08:25:19;26.80;;;10.63;;
79583;SDS011;69053;57.338;18.700;2024-02-15T08:28:20;22.95;;;11.30;;
79583;SDS011;69053;57.338;18.700;2024-02-15T08:31:21;29.42;;;10.38;;
79583;SDS011;69053;57.338;18.700;2024-02-15T08:34:22;24.45;;;10.98;;
79583;SDS011;69053;57.338;18.700;2024-02-15T08:37:22;28.45;;;10.88;;
79583;SDS011;69053;57.338;18.700;2024-02-15T08:40:22;33.55;;;12.07;;
79583;SDS011;69053;57.338;18.700;2024-02-15T08:43:24;32.58;;;11.80;;
79583;SDS011;69053;57.338;18.700;2024-02-15T08:46:25;28.38;;;11.48;;
79583;SDS011;69053;57.338;18.700;2024-02-15T08:49:27;30.38;;;11.98;;
79583;SDS011;69053;57.338;18.700;2024-02-15T08:52:30;23.02;;;11.18;;
79583;SDS011;69053;57.338;18.700;2024-02-15T08:55:31;30.08;;;11.50;;
79583;SDS011;69053;57.338;18.700;2024-02-15T08:58:31;33.00;;;11.88;;
79583;SDS011;69053;57.338;18.700;2024-02-15T09:01:32;30.27;;;12.93;;
79583;SDS011;69053;57.338;18.700;2024-02-15T09:04:33;29.38;;;12.13;;
79583;SDS011;69053;57.338;18.700;2024-02-15T09:07:34;27.08;;;11.60;;
79583;SDS011;69053;57.338;18.700;2024-02-15T09:10:36;34.83;;;12.07;;
79583;SDS011;69053;57.338;18.700;2024-02-15T09:13:39;28.95;;;13.43;;
79583;SDS011;69053;57.338;18.700;2024-02-15T09:16:39;30.83;;;12.95;;
79583;SDS011;69053;57.338;18.700;2024-02-15T09:19:40;29.33;;;12.30;;
79583;SDS011;69053;57.338;18.700;2024-02-15T09:22:42;28.70;;;12.52;;
79583;SDS011;69053;57.338;18.700;2024-02-15T09:25:49;31.52;;;11.68;;
79583;SDS011;69053;57.338;18.700;2024-02-15T09:28:51;32.97;;;13.02;;
79583;SDS011;69053;57.338;18.700;2024-02-15T09:31:53;37.95;;;13.48;;
79583;SDS011;69053;57.338;18.700;2024-02-15T09:34:53;28.75;;;11.52;;
79583;SDS011;69053;57.338;18.700;2024-02-15T09:37:54;37.25;;;13.15;;
79583;SDS011;69053;57.338;18.700;2024-02-15T09:40:56;30.40;;;11.95;;
79583;SDS011;69053;57.338;18.700;2024-02-15T09:43:57;42.63;;;13.57;;
79583;SDS011;69053;57.338;18.700;2024-02-15T09:47:04;35.53;;;13.18;;
79583;SDS011;69053;57.338;18.700;2024-02-15T09:50:09;30.70;;;12.48;;
79583;SDS011;69053;57.338;18.700;2024-02-15T09:53:11;33.97;;;12.05;;
79583;SDS011;69053;57.338;18.700;2024-02-15T09:56:12;32.40;;;11.95;;
79583;SDS011;69053;57.338;18.700;2024-02-15T09:59:15;35.50;;;12.07;;
79583;SDS011;69053;57.338;18.700;2024-02-15T10:02:16;35.47;;;13.00;;
79583;SDS011;69053;57.338;18.700;2024-02-15T10:05:18;28.38;;;11.50;;
79583;SDS011;69053;57.338;18.700;2024-02-15T10:08:20;29.77;;;11.70;;
79583;SDS011;69053;57.338;18.700;2024-02-15T10:11:23;31.90;;;12.52;;
79583;SDS011;69053;57.338;18.700;2024-02-15T10:14:24;38.38;;;12.48;;
79583;SDS011;69053;57.338;18.700;2024-02-15T10:17:25;26.83;;;12.07;;
79583;SDS011;69053;57.338;18.700;2024-02-15T10:20:26;35.05;;;11.90;;
79583;SDS011;69053;57.338;18.700;2024-02-15T10:23:27;25.70;;;11.10;;
79583;SDS011;69053;57.338;18.700;2024-02-15T10:26:27;31.73;;;13.63;;
79583;SDS011;69053;57.338;18.700;2024-02-15T10:29:29;28.60;;;11.90;;
79583;SDS011;69053;57.338;18.700;2024-02-15T10:32:36;39.67;;;13.15;;
79583;SDS011;69053;57.338;18.700;2024-02-15T10:35:36;37.72;;;11.45;;
79583;SDS011;69053;57.338;18.700;2024-02-15T10:38:37;33.95;;;11.05;;
79583;SDS011;69053;57.338;18.700;2024-02-15T10:41:38;28.70;;;11.73;;
79583;SDS011;69053;57.338;18.700;2024-02-15T10:44:40;29.10;;;11.52;;
79583;SDS011;69053;57.338;18.700;2024-02-15T10:47:46;28.80;;;10.93;;
79583;SDS011;69053;57.338;18.700;2024-02-15T10:50:47;35.33;;;11.95;;
79583;SDS011;69053;57.338;18.700;2024-02-15T10:53:54;36.15;;;12.77;;
79583;SDS011;69053;57.338;18.700;2024-02-15T10:56:59;30.02;;;10.98;;
79583;SDS011;69053;57.338;18.700;2024-02-15T11:00:04;31.83;;;10.80;;
79583;SDS011;69053;57.338;18.700;2024-02-15T11:03:10;33.75;;;11.70;;
79583;SDS011;69053;57.338;18.700;2024-02-15T11:06:20;29.90;;;11.15;;
79583;SDS011;69053;57.338;18.700;2024-02-15T11:09:22;30.95;;;12.30;;
79583;SDS011;69053;57.338;18.700;2024-02-15T11:12:23;28.38;;;11.85;;
79583;SDS011;69053;57.338;18.700;2024-02-15T11:18:45;35.25;;;12.50;;
79583;SDS011;69053;57.338;18.700;2024-02-15T11:21:54;28.23;;;11.10;;
79583;SDS011;69053;57.338;18.700;2024-02-15T11:24:58;31.52;;;11.15;;
79583;SDS011;69053;57.338;18.700;2024-02-15T11:35:02;23.40;;;10.52;;
79583;SDS011;69053;57.338;18.700;2024-02-15T11:38:11;25.95;;;10.27;;
79583;SDS011;69053;57.338;18.700;2024-02-15T11:41:28;34.08;;;11.65;;
79583;SDS011;69053;57.338;18.700;2024-02-15T11:44:29;31.15;;;11.32;;
79583;SDS011;69053;57.338;18.700;2024-02-15T11:47:31;31.80;;;10.93;;
79583;SDS011;69053;57.338;18.700;2024-02-15T11:50:36;28.13;;;11.23;;
79583;SDS011;69053;57.338;18.700;2024-02-15T11:53:39;28.20;;;10.95;;
79583;SDS011;69053;57.338;18.700;2024-02-15T12:00:09;35.95;;;12.00;;
79583;SDS011;69053;57.338;18.700;2024-02-15T12:03:38;31.23;;;11.18;;
79583;SDS011;69053;57.338;18.700;2024-02-15T12:07:00;36.85;;;11.40;;
79583;SDS011;69053;57.338;18.700;2024-02-15T12:10:19;31.55;;;11.68;;
79583;SDS011;69053;57.338;18.700;2024-02-15T12:13:38;30.05;;;10.75;;
79583;SDS011;69053;57.338;18.700;2024-02-15T12:17:04;33.78;;;10.65;;
79583;SDS011;69053;57.338;18.700;2024-02-15T12:20:24;30.30;;;11.73;;
79583;SDS011;69053;57.338;18.700;2024-02-15T12:23:24;37.88;;;10.85;;
79583;SDS011;69053;57.338;18.700;2024-02-15T12:26:26;37.67;;;12.10;;
79583;SDS011;69053;57.338;18.700;2024-02-15T12:29:28;46.15;;;11.13;;
79583;SDS011;69053;57.338;18.700;2024-02-15T12:32:29;34.83;;;11.20;;
79583;SDS011;69053;57.338;18.700;2024-02-15T12:35:31;31.95;;;10.88;;
79583;SDS011;69053;57.338;18.700;2024-02-15T12:38:32;31.63;;;9.80;;
79583;SDS011;69053;57.338;18.700;2024-02-15T12:41:34;29.77;;;10.75;;
79583;SDS011;69053;57.338;18.700;2024-02-15T12:44:35;45.15;;;11.82;;
79583;SDS011;69053;57.338;18.700;2024-02-15T12:47:36;39.75;;;10.80;;
79583;SDS011;69053;57.338;18.700;2024-02-15T12:50:37;36.92;;;11.15;;
79583;SDS011;69053;57.338;18.700;2024-02-15T12:53:38;27.80;;;10.68;;
79583;SDS011;69053;57.338;18.700;2024-02-15T12:56:38;38.63;;;10.88;;
79583;SDS011;69053;57.338;18.700;2024-02-15T12:59:39;29.13;;;9.55;;
79583;SDS011;69053;57.338;18.700;2024-02-15T13:02:42;30.92;;;10.20;;
79583;SDS011;69053;57.338;18.700;2024-02-15T13:05:43;41.83;;;11.52;;
79583;SDS011;69053;57.338;18.700;2024-02-15T13:08:43;30.05;;;10.88;;
79583;SDS011;69053;57.338;18.700;2024-02-15T13:11:48;32.55;;;10.57;;
79583;SDS011;69053;57.338;18.700;2024-02-15T13:14:50;29.25;;;11.65;;
79583;SDS011;69053;57.338;18.700;2024-02-15T13:17:50;31.45;;;10.75;;
79583;SDS011;69053;57.338;18.700;2024-02-15T13:20:51;32.50;;;11.23;;
79583;SDS011;69053;57.338;18.700;2024-02-15T13:23:52;41.67;;;11.10;;
79583;SDS011;69053;57.338;18.700;2024-02-15T13:26:53;38.60;;;9.88;;
79583;SDS011;69053;57.338;18.700;2024-02-15T13:29:53;56.00;;;12.02;;
79583;SDS011;69053;57.338;18.700;2024-02-15T13:32:54;38.85;;;11.02;;
79583;SDS011;69053;57.338;18.700;2024-02-15T13:35:54;36.22;;;9.98;;
79583;SDS011;69053;57.338;18.700;2024-02-15T13:38:55;33.90;;;11.02;;
79583;SDS011;69053;57.338;18.700;2024-02-15T13:41:55;30.58;;;11.45;;
79583;SDS011;69053;57.338;18.700;2024-02-15T13:44:56;26.17;;;9.45;;
79583;SDS011;69053;57.338;18.700;2024-02-15T13:47:56;32.15;;;10.70;;
79583;SDS011;69053;57.338;18.700;2024-02-15T13:50:57;29.98;;;9.73;;
79583;SDS011;69053;57.338;18.700;2024-02-15T13:53:58;31.77;;;10.27;;
79583;SDS011;69053;57.338;18.700;2024-02-15T13:57:01;34.20;;;9.57;;
79583;SDS011;69053;57.338;18.700;2024-02-15T14:00:02;30.77;;;9.75;;
79583;SDS011;69053;57.338;18.700;2024-02-15T14:03:05;38.53;;;11.73;;
79583;SDS011;69053;57.338;18.700;2024-02-15T14:06:06;33.53;;;10.93;;
79583;SDS011;69053;57.338;18.700;2024-02-15T14:09:06;42.78;;;10.85;;
79583;SDS011;69053;57.338;18.700;2024-02-15T14:12:07;40.28;;;12.05;;
79583;SDS011;69053;57.338;18.700;2024-02-15T14:15:07;34.40;;;11.10;;
79583;SDS011;69053;57.338;18.700;2024-02-15T14:18:11;45.03;;;11.02;;
79583;SDS011;69053;57.338;18.700;2024-02-15T14:21:18;29.30;;;10.05;;
79583;SDS011;69053;57.338;18.700;2024-02-15T14:24:19;34.22;;;9.50;;
79583;SDS011;69053;57.338;18.700;2024-02-15T14:27:22;39.58;;;10.00;;
79583;SDS011;69053;57.338;18.700;2024-02-15T14:30:23;46.65;;;9.95;;
79583;SDS011;69053;57.338;18.700;2024-02-15T14:33:45;27.13;;;9.18;;
79583;SDS011;69053;57.338;18.700;2024-02-15T14:36:46;31.52;;;10.35;;
79583;SDS011;69053;57.338;18.700;2024-02-15T14:39:47;26.30;;;9.57;;
79583;SDS011;69053;57.338;18.700;2024-02-15T14:42:47;26.08;;;9.20;;
79583;SDS011;69053;57.338;18.700;2024-02-15T14:45:48;44.97;;;10.63;;
79583;SDS011;69053;57.338;18.700;2024-02-15T14:48:49;24.60;;;8.98;;
79583;SDS011;69053;57.338;18.700;2024-02-15T14:51:50;38.00;;;10.07;;
79583;SDS011;69053;57.338;18.700;2024-02-15T14:54:51;39.55;;;8.65;;
79583;SDS011;69053;57.338;18.700;2024-02-15T14:57:52;34.92;;;10.43;;
79583;SDS011;69053;57.338;18.700;2024-02-15T15:00:52;28.52;;;9.18;;
79583;SDS011;69053;57.338;18.700;2024-02-15T15:03:53;32.42;;;8.73;;
79583;SDS011;69053;57.338;18.700;2024-02-15T15:06:55;32.55;;;10.23;;
79583;SDS011;69053;57.338;18.700;2024-02-15T15:10:14;43.25;;;10.13;;
79583;SDS011;69053;57.338;18.700;2024-02-15T15:13:33;54.17;;;12.48;;
79583;SDS011;69053;57.338;18.700;2024-02-15T15:16:33;64.55;;;11.55;;
79583;SDS011;69053;57.338;18.700;2024-02-15T15:19:34;32.50;;;9.07;;
79583;SDS011;69053;57.338;18.700;2024-02-15T15:22:37;33.25;;;10.05;;
79583;SDS011;69053;57.338;18.700;2024-02-15T15:25:39;40.97;;;9.98;;
79583;SDS011;69053;57.338;18.700;2024-02-15T15:28:40;30.73;;;9.40;;
79583;SDS011;69053;57.338;18.700;2024-02-15T15:31:40;37.28;;;8.95;;
79583;SDS011;69053;57.338;18.700;2024-02-15T15:34:41;34.38;;;8.75;;
79583;SDS011;69053;57.338;18.700;2024-02-15T15:37:41;32.72;;;9.30;;
79583;SDS011;69053;57.338;18.700;2024-02-15T15:40:42;57.67;;;10.90;;
79583;SDS011;69053;57.338;18.700;2024-02-15T15:43:42;41.42;;;10.45;;
79583;SDS011;69053;57.338;18.700;2024-02-15T15:46:43;31.98;;;9.60;;
79583;SDS011;69053;57.338;18.700;2024-02-15T15:49:43;36.67;;;10.02;;
79583;SDS011;69053;57.338;18.700;2024-02-15T15:52:45;45.95;;;11.20;;
79583;SDS011;69053;57.338;18.700;2024-02-15T15:55:45;37.10;;;8.50;;
79583;SDS011;69053;57.338;18.700;2024-02-15T15:58:46;35.45;;;9.93;;
79583;SDS011;69053;57.338;18.700;2024-02-15T16:01:50;29.23;;;9.23;;
79583;SDS011;69053;57.338;18.700;2024-02-15T16:04:51;58.45;;;11.05;;
79583;SDS011;69053;57.338;18.700;2024-02-15T16:07:55;47.20;;;10.52;;
79583;SDS011;69053;57.338;18.700;2024-02-15T16:10:55;31.10;;;9.05;;
79583;SDS011;69053;57.338;18.700;2024-02-15T16:13:56;26.05;;;9.38;;
79583;SDS011;69053;57.338;18.700;2024-02-15T16:16:57;73.55;;;11.68;;
79583;SDS011;69053;57.338;18.700;2024-02-15T16:19:57;38.20;;;9.77;;
79583;SDS011;69053;57.338;18.700;2024-02-15T16:22:58;26.67;;;8.85;;
79583;SDS011;69053;57.338;18.700;2024-02-15T16:25:58;30.05;;;8.38;;
79583;SDS011;69053;57.338;18.700;2024-02-15T16:28:59;40.20;;;9.77;;
79583;SDS011;69053;57.338;18.700;2024-02-15T16:32:00;20.63;;;8.32;;
79583;SDS011;69053;57.338;18.700;2024-02-15T16:35:02;34.25;;;10.63;;
79583;SDS011;69053;57.338;18.700;2024-02-15T16:38:09;36.22;;;9.90;;
79583;SDS011;69053;57.338;18.700;2024-02-15T16:41:09;36.33;;;9.45;;
79583;SDS011;69053;57.338;18.700;2024-02-15T16:44:10;50.42;;;11.73;;
79583;SDS011;69053;57.338;18.700;2024-02-15T16:47:11;30.70;;;10.32;;
79583;SDS011;69053;57.338;18.700;2024-02-15T16:50:11;34.40;;;8.77;;
79583;SDS011;69053;57.338;18.700;2024-02-15T16:53:11;55.53;;;11.65;;
79583;SDS011;69053;57.338;18.700;2024-02-15T16:56:15;44.08;;;10.07;;
79583;SDS011;69053;57.338;18.700;2024-02-15T16:59:23;49.45;;;10.18;;
79583;SDS011;69053;57.338;18.700;2024-02-15T17:02:23;26.70;;;8.93;;
79583;SDS011;69053;57.338;18.700;2024-02-15T17:05:24;62.90;;;12.40;;
79583;SDS011;69053;57.338;18.700;2024-02-15T17:08:25;34.55;;;9.80;;
79583;SDS011;69053;57.338;18.700;2024-02-15T17:11:25;30.88;;;9.98;;
79583;SDS011;69053;57.338;18.700;2024-02-15T17:14:25;36.65;;;10.80;;
79583;SDS011;69053;57.338;18.700;2024-02-15T17:17:26;28.27;;;9.40;;
79583;SDS011;69053;57.338;18.700;2024-02-15T17:20:27;29.88;;;9.30;;
79583;SDS011;69053;57.338;18.700;2024-02-15T17:23:27;32.88;;;9.82;;
79583;SDS011;69053;57.338;18.700;2024-02-15T17:26:29;44.53;;;11.73;;
79583;SDS011;69053;57.338;18.700;2024-02-15T17:29:29;27.27;;;8.20;;
79583;SDS011;69053;57.338;18.700;2024-02-15T17:32:29;17.05;;;7.43;;
79583;SDS011;69053;57.338;18.700;2024-02-15T17:35:30;46.45;;;10.77;;
79583;SDS011;69053;57.338;18.700;2024-02-15T17:38:31;30.52;;;9.18;;
79583;SDS011;69053;57.338;18.700;2024-02-15T17:41:33;26.77;;;8.57;;
79583;SDS011;69053;57.338;18.700;2024-02-15T17:44:34;41.50;;;9.85;;
79583;SDS011;69053;57.338;18.700;2024-02-15T17:47:34;34.45;;;10.85;;